sensor_id;sensor_type;location;lat;lon;timestamp;P1;durP1;ratioP1;P2;durP2;ratioP2
21567;SDS011;10944;42.590;12.630;2022-10-16T00:00:32;15.80;;;9.77;;
21567;SDS011;10944;42.590;12.630;2022-10-16T00:02:59;17.17;;;9.70;;
21567;SDS011;10944;42.590;12.630;2022-10-16T00:05:26;17.70;;;9.60;;
21567;SDS011;10944;42.590;12.630;2022-10-16T00:07:52;15.80;;;9.85;;
21567;SDS011;10944;42.590;12.630;2022-10-16T00:10:18;17.23;;;9.85;;
21567;SDS011;10944;42.590;12.630;2022-10-16T00:12:43;15.50;;;9.18;;
21567;SDS011;10944;42.590;12.630;2022-10-16T00:15:09;16.70;;;9.10;;
21567;SDS011;10944;42.590;12.630;2022-10-16T00:17:35;13.90;;;9.65;;
21567;SDS011;10944;42.590;12.630;2022-10-16T00:20:01;17.58;;;9.80;;
21567;SDS011;10944;42.590;12.630;2022-10-16T00:22:26;16.65;;;10.05;;
21567;SDS011;10944;42.590;12.630;2022-10-16T00:24:52;18.17;;;10.20;;
21567;SDS011;10944;42.590;12.630;2022-10-16T00:27:18;16.55;;;9.73;;
21567;SDS011;10944;42.590;12.630;2022-10-16T00:29:43;16.08;;;9.52;;
21567;SDS011;10944;42.590;12.630;2022-10-16T00:32:09;16.63;;;10.02;;
21567;SDS011;10944;42.590;12.630;2022-10-16T00:34:35;16.58;;;9.70;;
21567;SDS011;10944;42.590;12.630;2022-10-16T00:37:00;15.60;;;9.73;;
21567;SDS011;10944;42.590;12.630;2022-10-16T00:39:27;20.83;;;10.35;;
21567;SDS011;10944;42.590;12.630;2022-10-16T00:41:53;16.00;;;9.88;;
21567;SDS011;10944;42.590;12.630;2022-10-16T00:52:36;15.95;;;8.98;;
21567;SDS011;10944;42.590;12.630;2022-10-16T00:55:07;15.23;;;9.30;;
21567;SDS011;10944;42.590;12.630;2022-10-16T00:57:34;16.92;;;9.50;;
21567;SDS011;10944;42.590;12.630;2022-10-16T01:00:01;17.10;;;9.75;;
21567;SDS011;10944;42.590;12.630;2022-10-16T01:02:29;16.52;;;9.23;;
21567;SDS011;10944;42.590;12.630;2022-10-16T01:04:54;14.45;;;9.15;;
21567;SDS011;10944;42.590;12.630;2022-10-16T01:12:46;16.17;;;9.48;;
21567;SDS011;10944;42.590;12.630;2022-10-16T01:15:36;18.15;;;10.05;;
21567;SDS011;10944;42.590;12.630;2022-10-16T01:20:57;14.68;;;10.13;;
21567;SDS011;10944;42.590;12.630;2022-10-16T01:23:34;17.15;;;9.55;;
21567;SDS011;10944;42.590;12.630;2022-10-16T01:31:43;20.25;;;9.90;;
21567;SDS011;10944;42.590;12.630;2022-10-16T01:34:18;21.20;;;10.25;;
21567;SDS011;10944;42.590;12.630;2022-10-16T01:36:50;17.73;;;9.85;;
21567;SDS011;10944;42.590;12.630;2022-10-16T01:39:21;17.85;;;9.52;;
21567;SDS011;10944;42.590;12.630;2022-10-16T01:41:55;14.43;;;9.23;;
21567;SDS011;10944;42.590;12.630;2022-10-16T01:44:32;15.27;;;9.27;;
21567;SDS011;10944;42.590;12.630;2022-10-16T01:47:01;17.48;;;9.52;;
21567;SDS011;10944;42.590;12.630;2022-10-16T01:49:29;17.02;;;9.30;;
21567;SDS011;10944;42.590;12.630;2022-10-16T01:51:58;18.17;;;9.73;;
21567;SDS011;10944;42.590;12.630;2022-10-16T01:54:27;16.92;;;9.77;;
21567;SDS011;10944;42.590;12.630;2022-10-16T01:56:56;14.82;;;9.65;;
21567;SDS011;10944;42.590;12.630;2022-10-16T01:59:23;16.80;;;9.30;;
21567;SDS011;10944;42.590;12.630;2022-10-16T02:01:54;14.63;;;9.30;;
21567;SDS011;10944;42.590;12.630;2022-10-16T02:04:28;18.27;;;9.60;;
21567;SDS011;10944;42.590;12.630;2022-10-16T02:06:58;14.57;;;9.43;;
21567;SDS011;10944;42.590;12.630;2022-10-16T02:09:24;15.35;;;9.45;;
21567;SDS011;10944;42.590;12.630;2022-10-16T02:11:51;15.70;;;9.55;;
21567;SDS011;10944;42.590;12.630;2022-10-16T02:14:19;17.77;;;10.35;;
21567;SDS011;10944;42.590;12.630;2022-10-16T02:16:49;18.25;;;10.00;;
21567;SDS011;10944;42.590;12.630;2022-10-16T02:19:15;18.75;;;10.25;;
21567;SDS011;10944;42.590;12.630;2022-10-16T02:21:49;16.45;;;9.65;;
21567;SDS011;10944;42.590;12.630;2022-10-16T02:27:04;16.70;;;9.73;;
21567;SDS011;10944;42.590;12.630;2022-10-16T02:29:47;15.88;;;9.10;;
21567;SDS011;10944;42.590;12.630;2022-10-16T02:32:19;16.33;;;9.48;;
21567;SDS011;10944;42.590;12.630;2022-10-16T02:34:48;15.85;;;9.57;;
21567;SDS011;10944;42.590;12.630;2022-10-16T02:37:16;14.07;;;9.57;;
21567;SDS011;10944;42.590;12.630;2022-10-16T02:39:43;15.77;;;9.70;;
21567;SDS011;10944;42.590;12.630;2022-10-16T02:42:15;15.88;;;9.40;;
21567;SDS011;10944;42.590;12.630;2022-10-16T02:44:43;14.13;;;9.43;;
21567;SDS011;10944;42.590;12.630;2022-10-16T02:47:08;17.10;;;9.65;;
21567;SDS011;10944;42.590;12.630;2022-10-16T02:49:34;16.98;;;9.43;;
21567;SDS011;10944;42.590;12.630;2022-10-16T02:52:00;17.85;;;10.32;;
21567;SDS011;10944;42.590;12.630;2022-10-16T02:54:26;15.43;;;9.45;;
21567;SDS011;10944;42.590;12.630;2022-10-16T02:56:51;19.02;;;9.32;;
21567;SDS011;10944;42.590;12.630;2022-10-16T02:59:17;17.30;;;9.48;;
21567;SDS011;10944;42.590;12.630;2022-10-16T03:01:43;17.63;;;10.25;;
21567;SDS011;10944;42.590;12.630;2022-10-16T03:04:09;19.48;;;10.07;;
21567;SDS011;10944;42.590;12.630;2022-10-16T03:06:34;17.50;;;10.52;;
21567;SDS011;10944;42.590;12.630;2022-10-16T03:09:00;17.58;;;10.05;;
21567;SDS011;10944;42.590;12.630;2022-10-16T03:11:26;18.52;;;10.10;;
21567;SDS011;10944;42.590;12.630;2022-10-16T03:13:53;15.68;;;10.15;;
21567;SDS011;10944;42.590;12.630;2022-10-16T03:16:18;17.30;;;10.30;;
21567;SDS011;10944;42.590;12.630;2022-10-16T03:18:47;18.58;;;10.27;;
21567;SDS011;10944;42.590;12.630;2022-10-16T03:21:14;16.17;;;10.05;;
21567;SDS011;10944;42.590;12.630;2022-10-16T03:23:40;17.67;;;10.07;;
21567;SDS011;10944;42.590;12.630;2022-10-16T03:26:06;22.00;;;10.85;;
21567;SDS011;10944;42.590;12.630;2022-10-16T03:28:32;16.45;;;9.65;;
21567;SDS011;10944;42.590;12.630;2022-10-16T03:30:57;17.95;;;9.80;;
21567;SDS011;10944;42.590;12.630;2022-10-16T03:33:23;16.63;;;10.05;;
21567;SDS011;10944;42.590;12.630;2022-10-16T03:35:52;15.73;;;10.48;;
21567;SDS011;10944;42.590;12.630;2022-10-16T03:38:19;18.40;;;10.65;;
21567;SDS011;10944;42.590;12.630;2022-10-16T03:40:45;18.52;;;9.82;;
21567;SDS011;10944;42.590;12.630;2022-10-16T03:43:11;16.83;;;10.07;;
21567;SDS011;10944;42.590;12.630;2022-10-16T03:45:36;18.08;;;10.75;;
21567;SDS011;10944;42.590;12.630;2022-10-16T03:48:02;16.52;;;9.60;;
21567;SDS011;10944;42.590;12.630;2022-10-16T03:50:28;17.25;;;11.07;;
21567;SDS011;10944;42.590;12.630;2022-10-16T03:52:54;16.95;;;10.70;;
21567;SDS011;10944;42.590;12.630;2022-10-16T03:55:20;16.63;;;9.85;;
21567;SDS011;10944;42.590;12.630;2022-10-16T03:57:46;16.83;;;10.27;;
21567;SDS011;10944;42.590;12.630;2022-10-16T04:00:11;16.17;;;10.32;;
21567;SDS011;10944;42.590;12.630;2022-10-16T04:02:37;17.88;;;10.57;;
21567;SDS011;10944;42.590;12.630;2022-10-16T04:05:04;20.85;;;10.75;;
21567;SDS011;10944;42.590;12.630;2022-10-16T04:07:30;15.30;;;10.15;;
21567;SDS011;10944;42.590;12.630;2022-10-16T04:09:56;18.20;;;10.60;;
21567;SDS011;10944;42.590;12.630;2022-10-16T04:12:23;17.27;;;10.27;;
21567;SDS011;10944;42.590;12.630;2022-10-16T04:14:50;18.55;;;10.13;;
21567;SDS011;10944;42.590;12.630;2022-10-16T04:17:15;15.07;;;10.38;;
21567;SDS011;10944;42.590;12.630;2022-10-16T04:19:41;15.93;;;10.18;;
21567;SDS011;10944;42.590;12.630;2022-10-16T04:22:07;19.17;;;9.95;;
21567;SDS011;10944;42.590;12.630;2022-10-16T04:24:33;17.38;;;10.27;;
21567;SDS011;10944;42.590;12.630;2022-10-16T04:26:58;19.17;;;9.85;;
21567;SDS011;10944;42.590;12.630;2022-10-16T04:29:24;17.17;;;10.18;;
21567;SDS011;10944;42.590;12.630;2022-10-16T04:31:50;22.13;;;9.57;;
21567;SDS011;10944;42.590;12.630;2022-10-16T04:34:15;15.98;;;9.90;;
21567;SDS011;10944;42.590;12.630;2022-10-16T04:36:41;14.15;;;9.20;;
21567;SDS011;10944;42.590;12.630;2022-10-16T04:39:07;18.73;;;9.63;;
21567;SDS011;10944;42.590;12.630;2022-10-16T04:41:33;14.20;;;9.20;;
21567;SDS011;10944;42.590;12.630;2022-10-16T04:43:59;16.02;;;9.90;;
21567;SDS011;10944;42.590;12.630;2022-10-16T04:46:24;16.73;;;9.77;;
21567;SDS011;10944;42.590;12.630;2022-10-16T04:48:50;17.67;;;9.98;;
21567;SDS011;10944;42.590;12.630;2022-10-16T04:51:16;15.15;;;9.50;;
21567;SDS011;10944;42.590;12.630;2022-10-16T04:53:41;16.58;;;9.75;;
21567;SDS011;10944;42.590;12.630;2022-10-16T04:56:07;19.77;;;9.77;;
21567;SDS011;10944;42.590;12.630;2022-10-16T04:58:33;16.77;;;9.85;;
21567;SDS011;10944;42.590;12.630;2022-10-16T05:00:59;17.80;;;10.05;;
21567;SDS011;10944;42.590;12.630;2022-10-16T05:03:24;16.17;;;9.52;;
21567;SDS011;10944;42.590;12.630;2022-10-16T05:05:50;16.25;;;10.00;;
21567;SDS011;10944;42.590;12.630;2022-10-16T05:08:16;17.63;;;10.23;;
21567;SDS011;10944;42.590;12.630;2022-10-16T05:10:42;18.83;;;9.68;;
21567;SDS011;10944;42.590;12.630;2022-10-16T05:13:08;16.60;;;9.50;;
21567;SDS011;10944;42.590;12.630;2022-10-16T05:15:35;18.42;;;9.93;;
21567;SDS011;10944;42.590;12.630;2022-10-16T05:18:01;17.30;;;10.75;;
21567;SDS011;10944;42.590;12.630;2022-10-16T05:20:26;17.90;;;10.63;;
21567;SDS011;10944;42.590;12.630;2022-10-16T05:22:52;16.17;;;10.32;;
21567;SDS011;10944;42.590;12.630;2022-10-16T05:25:18;16.38;;;10.63;;
21567;SDS011;10944;42.590;12.630;2022-10-16T05:27:46;21.00;;;10.43;;
21567;SDS011;10944;42.590;12.630;2022-10-16T05:30:13;18.30;;;9.80;;
21567;SDS011;10944;42.590;12.630;2022-10-16T05:32:39;21.42;;;11.00;;
21567;SDS011;10944;42.590;12.630;2022-10-16T05:35:05;17.52;;;10.45;;
21567;SDS011;10944;42.590;12.630;2022-10-16T05:37:31;16.75;;;10.15;;
21567;SDS011;10944;42.590;12.630;2022-10-16T05:39:57;17.17;;;10.98;;
21567;SDS011;10944;42.590;12.630;2022-10-16T05:42:22;17.35;;;10.35;;
21567;SDS011;10944;42.590;12.630;2022-10-16T05:44:48;17.63;;;10.60;;
21567;SDS011;10944;42.590;12.630;2022-10-16T05:47:14;16.20;;;10.02;;
21567;SDS011;10944;42.590;12.630;2022-10-16T05:49:39;16.33;;;10.32;;
21567;SDS011;10944;42.590;12.630;2022-10-16T05:52:05;16.38;;;10.93;;
21567;SDS011;10944;42.590;12.630;2022-10-16T05:54:31;14.70;;;10.32;;
21567;SDS011;10944;42.590;12.630;2022-10-16T05:56:57;18.70;;;10.50;;
21567;SDS011;10944;42.590;12.630;2022-10-16T05:59:22;19.00;;;10.98;;
21567;SDS011;10944;42.590;12.630;2022-10-16T06:01:48;18.42;;;10.07;;
21567;SDS011;10944;42.590;12.630;2022-10-16T06:04:14;18.15;;;10.43;;
21567;SDS011;10944;42.590;12.630;2022-10-16T06:06:40;17.42;;;10.40;;
21567;SDS011;10944;42.590;12.630;2022-10-16T06:09:05;19.17;;;10.65;;
21567;SDS011;10944;42.590;12.630;2022-10-16T06:11:31;17.77;;;10.63;;
21567;SDS011;10944;42.590;12.630;2022-10-16T06:13:59;17.15;;;10.82;;
21567;SDS011;10944;42.590;12.630;2022-10-16T06:16:28;18.85;;;11.38;;
21567;SDS011;10944;42.590;12.630;2022-10-16T06:18:54;17.67;;;10.43;;
21567;SDS011;10944;42.590;12.630;2022-10-16T06:21:25;15.98;;;9.77;;
21567;SDS011;10944;42.590;12.630;2022-10-16T06:23:52;16.58;;;10.20;;
21567;SDS011;10944;42.590;12.630;2022-10-16T06:26:20;18.77;;;11.38;;
21567;SDS011;10944;42.590;12.630;2022-10-16T06:28:48;16.27;;;10.23;;
21567;SDS011;10944;42.590;12.630;2022-10-16T06:31:15;18.65;;;10.45;;
21567;SDS011;10944;42.590;12.630;2022-10-16T06:33:41;17.13;;;10.57;;
21567;SDS011;10944;42.590;12.630;2022-10-16T06:36:11;17.23;;;10.30;;
21567;SDS011;10944;42.590;12.630;2022-10-16T06:38:40;14.77;;;10.18;;
21567;SDS011;10944;42.590;12.630;2022-10-16T06:41:06;16.63;;;9.32;;
21567;SDS011;10944;42.590;12.630;2022-10-16T06:43:33;15.15;;;9.02;;
21567;SDS011;10944;42.590;12.630;2022-10-16T06:46:02;14.32;;;8.07;;
21567;SDS011;10944;42.590;12.630;2022-10-16T06:48:29;13.95;;;8.30;;
21567;SDS011;10944;42.590;12.630;2022-10-16T06:50:59;16.23;;;8.40;;
21567;SDS011;10944;42.590;12.630;2022-10-16T06:53:30;16.20;;;8.77;;
21567;SDS011;10944;42.590;12.630;2022-10-16T06:55:58;14.25;;;9.10;;
21567;SDS011;10944;42.590;12.630;2022-10-16T06:58:41;14.23;;;9.30;;
21567;SDS011;10944;42.590;12.630;2022-10-16T07:01:08;17.05;;;10.15;;
21567;SDS011;10944;42.590;12.630;2022-10-16T07:03:37;16.33;;;9.90;;
21567;SDS011;10944;42.590;12.630;2022-10-16T07:06:05;14.95;;;9.90;;
21567;SDS011;10944;42.590;12.630;2022-10-16T07:08:32;13.68;;;9.25;;
21567;SDS011;10944;42.590;12.630;2022-10-16T07:11:02;23.63;;;14.02;;
21567;SDS011;10944;42.590;12.630;2022-10-16T07:13:32;19.30;;;11.55;;
21567;SDS011;10944;42.590;12.630;2022-10-16T07:16:03;17.58;;;9.95;;
21567;SDS011;10944;42.590;12.630;2022-10-16T07:18:33;15.55;;;9.55;;
21567;SDS011;10944;42.590;12.630;2022-10-16T07:21:12;14.77;;;8.40;;
21567;SDS011;10944;42.590;12.630;2022-10-16T07:23:40;12.60;;;7.60;;
21567;SDS011;10944;42.590;12.630;2022-10-16T07:26:06;14.52;;;7.60;;
21567;SDS011;10944;42.590;12.630;2022-10-16T07:28:33;12.35;;;7.10;;
21567;SDS011;10944;42.590;12.630;2022-10-16T07:31:02;11.32;;;7.30;;
21567;SDS011;10944;42.590;12.630;2022-10-16T07:33:29;11.77;;;6.97;;
21567;SDS011;10944;42.590;12.630;2022-10-16T07:35:56;12.48;;;7.20;;
21567;SDS011;10944;42.590;12.630;2022-10-16T07:38:22;12.68;;;6.65;;
21567;SDS011;10944;42.590;12.630;2022-10-16T07:40:48;12.13;;;7.15;;
21567;SDS011;10944;42.590;12.630;2022-10-16T07:43:20;10.30;;;6.40;;
21567;SDS011;10944;42.590;12.630;2022-10-16T07:45:49;12.57;;;6.47;;
21567;SDS011;10944;42.590;12.630;2022-10-16T07:48:16;13.35;;;6.65;;
21567;SDS011;10944;42.590;12.630;2022-10-16T07:50:43;12.93;;;6.78;;
21567;SDS011;10944;42.590;12.630;2022-10-16T07:53:09;9.75;;;6.47;;
21567;SDS011;10944;42.590;12.630;2022-10-16T07:55:36;10.80;;;6.03;;
21567;SDS011;10944;42.590;12.630;2022-10-16T07:58:04;10.07;;;6.50;;
21567;SDS011;10944;42.590;12.630;2022-10-16T08:00:30;11.82;;;6.60;;
21567;SDS011;10944;42.590;12.630;2022-10-16T08:02:59;9.93;;;5.85;;
21567;SDS011;10944;42.590;12.630;2022-10-16T08:05:28;9.50;;;6.05;;
21567;SDS011;10944;42.590;12.630;2022-10-16T08:07:56;9.07;;;5.72;;
21567;SDS011;10944;42.590;12.630;2022-10-16T08:10:23;10.30;;;6.07;;
21567;SDS011;10944;42.590;12.630;2022-10-16T08:12:50;9.65;;;5.63;;
21567;SDS011;10944;42.590;12.630;2022-10-16T08:15:17;11.52;;;5.85;;
21567;SDS011;10944;42.590;12.630;2022-10-16T08:17:43;10.32;;;6.07;;
21567;SDS011;10944;42.590;12.630;2022-10-16T08:20:09;9.20;;;5.55;;
21567;SDS011;10944;42.590;12.630;2022-10-16T08:22:35;12.52;;;6.07;;
21567;SDS011;10944;42.590;12.630;2022-10-16T08:25:01;10.55;;;6.47;;
21567;SDS011;10944;42.590;12.630;2022-10-16T08:27:34;10.35;;;6.60;;
21567;SDS011;10944;42.590;12.630;2022-10-16T08:29:59;15.70;;;8.43;;
21567;SDS011;10944;42.590;12.630;2022-10-16T08:32:25;10.48;;;6.60;;
21567;SDS011;10944;42.590;12.630;2022-10-16T08:34:51;10.48;;;5.78;;
21567;SDS011;10944;42.590;12.630;2022-10-16T08:37:16;12.48;;;7.07;;
21567;SDS011;10944;42.590;12.630;2022-10-16T08:39:42;10.05;;;6.75;;
21567;SDS011;10944;42.590;12.630;2022-10-16T08:45:02;9.15;;;6.35;;
21567;SDS011;10944;42.590;12.630;2022-10-16T08:50:45;12.90;;;6.97;;
21567;SDS011;10944;42.590;12.630;2022-10-16T08:53:33;12.00;;;6.30;;
21567;SDS011;10944;42.590;12.630;2022-10-16T08:56:09;11.80;;;7.07;;
21567;SDS011;10944;42.590;12.630;2022-10-16T08:58:35;10.65;;;7.07;;
21567;SDS011;10944;42.590;12.630;2022-10-16T09:01:04;10.88;;;6.35;;
21567;SDS011;10944;42.590;12.630;2022-10-16T09:03:43;11.93;;;7.00;;
21567;SDS011;10944;42.590;12.630;2022-10-16T09:12:35;17.08;;;6.95;;
21567;SDS011;10944;42.590;12.630;2022-10-16T09:20:52;9.32;;;5.95;;
21567;SDS011;10944;42.590;12.630;2022-10-16T09:23:26;9.18;;;5.82;;
21567;SDS011;10944;42.590;12.630;2022-10-16T09:25:56;8.77;;;5.70;;
21567;SDS011;10944;42.590;12.630;2022-10-16T09:28:23;11.90;;;6.25;;
21567;SDS011;10944;42.590;12.630;2022-10-16T09:30:50;14.90;;;7.53;;
21567;SDS011;10944;42.590;12.630;2022-10-16T09:33:17;13.77;;;8.15;;
21567;SDS011;10944;42.590;12.630;2022-10-16T09:35:45;14.00;;;8.02;;
21567;SDS011;10944;42.590;12.630;2022-10-16T09:40:59;12.32;;;7.70;;
21567;SDS011;10944;42.590;12.630;2022-10-16T09:46:28;12.40;;;7.45;;
21567;SDS011;10944;42.590;12.630;2022-10-16T09:49:05;13.80;;;7.88;;
21567;SDS011;10944;42.590;12.630;2022-10-16T09:51:44;12.32;;;7.68;;
21567;SDS011;10944;42.590;12.630;2022-10-16T09:56:40;14.63;;;8.40;;
21567;SDS011;10944;42.590;12.630;2022-10-16T09:59:13;10.90;;;7.38;;
21567;SDS011;10944;42.590;12.630;2022-10-16T10:01:50;11.18;;;6.85;;
21567;SDS011;10944;42.590;12.630;2022-10-16T10:04:18;18.98;;;9.63;;
21567;SDS011;10944;42.590;12.630;2022-10-16T10:06:46;14.38;;;7.85;;
21567;SDS011;10944;42.590;12.630;2022-10-16T10:17:08;15.63;;;9.02;;
21567;SDS011;10944;42.590;12.630;2022-10-16T10:20:21;14.10;;;8.43;;
21567;SDS011;10944;42.590;12.630;2022-10-16T10:22:45;17.10;;;9.45;;
21567;SDS011;10944;42.590;12.630;2022-10-16T10:30:38;14.05;;;8.27;;
21567;SDS011;10944;42.590;12.630;2022-10-16T10:33:48;14.98;;;8.40;;
21567;SDS011;10944;42.590;12.630;2022-10-16T10:44:28;13.25;;;8.25;;
21567;SDS011;10944;42.590;12.630;2022-10-16T10:49:52;14.25;;;9.00;;
21567;SDS011;10944;42.590;12.630;2022-10-16T10:58:00;16.55;;;9.38;;
21567;SDS011;10944;42.590;12.630;2022-10-16T11:03:30;15.93;;;8.93;;
21567;SDS011;10944;42.590;12.630;2022-10-16T11:06:18;16.35;;;10.82;;
21567;SDS011;10944;42.590;12.630;2022-10-16T11:11:47;13.32;;;8.13;;
21567;SDS011;10944;42.590;12.630;2022-10-16T11:14:17;15.07;;;9.45;;
21567;SDS011;10944;42.590;12.630;2022-10-16T11:19:36;16.17;;;8.93;;
21567;SDS011;10944;42.590;12.630;2022-10-16T11:22:20;16.65;;;8.45;;
21567;SDS011;10944;42.590;12.630;2022-10-16T11:27:45;12.27;;;8.10;;
21567;SDS011;10944;42.590;12.630;2022-10-16T11:32:54;13.13;;;8.30;;
21567;SDS011;10944;42.590;12.630;2022-10-16T11:36:04;13.07;;;8.38;;
21567;SDS011;10944;42.590;12.630;2022-10-16T11:38:27;11.32;;;7.78;;
21567;SDS011;10944;42.590;12.630;2022-10-16T11:41:10;12.68;;;7.88;;
21567;SDS011;10944;42.590;12.630;2022-10-16T11:43:46;14.68;;;8.27;;
21567;SDS011;10944;42.590;12.630;2022-10-16T11:46:23;14.27;;;7.68;;
21567;SDS011;10944;42.590;12.630;2022-10-16T11:48:56;12.75;;;7.93;;
21567;SDS011;10944;42.590;12.630;2022-10-16T11:51:55;14.88;;;8.00;;
21567;SDS011;10944;42.590;12.630;2022-10-16T11:57:39;14.10;;;8.38;;
21567;SDS011;10944;42.590;12.630;2022-10-16T12:00:55;13.88;;;8.32;;
21567;SDS011;10944;42.590;12.630;2022-10-16T12:03:19;13.65;;;8.45;;
21567;SDS011;10944;42.590;12.630;2022-10-16T12:06:02;10.02;;;7.00;;
21567;SDS011;10944;42.590;12.630;2022-10-16T12:08:30;13.32;;;7.63;;
21567;SDS011;10944;42.590;12.630;2022-10-16T12:11:07;13.10;;;7.93;;
21567;SDS011;10944;42.590;12.630;2022-10-16T12:13:44;14.30;;;7.80;;
21567;SDS011;10944;42.590;12.630;2022-10-16T12:18:42;11.73;;;7.15;;
21567;SDS011;10944;42.590;12.630;2022-10-16T12:21:10;16.58;;;8.00;;
21567;SDS011;10944;42.590;12.630;2022-10-16T12:23:54;13.05;;;7.35;;
21567;SDS011;10944;42.590;12.630;2022-10-16T12:26:25;11.60;;;7.40;;
21567;SDS011;10944;42.590;12.630;2022-10-16T12:28:53;10.55;;;7.40;;
21567;SDS011;10944;42.590;12.630;2022-10-16T12:31:20;12.07;;;7.50;;
21567;SDS011;10944;42.590;12.630;2022-10-16T12:34:00;14.13;;;7.40;;
21567;SDS011;10944;42.590;12.630;2022-10-16T12:36:31;11.98;;;7.47;;
21567;SDS011;10944;42.590;12.630;2022-10-16T12:38:59;11.15;;;6.78;;
21567;SDS011;10944;42.590;12.630;2022-10-16T12:41:29;12.32;;;7.00;;
21567;SDS011;10944;42.590;12.630;2022-10-16T12:43:57;10.27;;;6.70;;
21567;SDS011;10944;42.590;12.630;2022-10-16T12:51:39;10.43;;;6.70;;
21567;SDS011;10944;42.590;12.630;2022-10-16T12:54:16;10.60;;;6.97;;
21567;SDS011;10944;42.590;12.630;2022-10-16T13:11:03;14.10;;;7.15;;
21567;SDS011;10944;42.590;12.630;2022-10-16T13:19:22;11.13;;;6.53;;
21567;SDS011;10944;42.590;12.630;2022-10-16T13:22:02;11.73;;;7.10;;
21567;SDS011;10944;42.590;12.630;2022-10-16T13:32:45;11.15;;;8.07;;
21567;SDS011;10944;42.590;12.630;2022-10-16T13:35:20;12.50;;;6.68;;
21567;SDS011;10944;42.590;12.630;2022-10-16T13:37:48;12.48;;;6.78;;
21567;SDS011;10944;42.590;12.630;2022-10-16T13:40:21;12.55;;;8.60;;
21567;SDS011;10944;42.590;12.630;2022-10-16T13:42:49;11.68;;;7.22;;
21567;SDS011;10944;42.590;12.630;2022-10-16T13:45:18;10.93;;;6.68;;
21567;SDS011;10944;42.590;12.630;2022-10-16T13:47:45;11.52;;;6.80;;
21567;SDS011;10944;42.590;12.630;2022-10-16T13:50:12;12.07;;;7.40;;
21567;SDS011;10944;42.590;12.630;2022-10-16T13:52:39;10.35;;;6.93;;
21567;SDS011;10944;42.590;12.630;2022-10-16T13:55:13;10.00;;;6.95;;
21567;SDS011;10944;42.590;12.630;2022-10-16T13:57:41;11.80;;;7.15;;
21567;SDS011;10944;42.590;12.630;2022-10-16T14:00:17;13.02;;;7.20;;
21567;SDS011;10944;42.590;12.630;2022-10-16T14:02:50;12.65;;;6.57;;
21567;SDS011;10944;42.590;12.630;2022-10-16T14:05:30;13.02;;;7.40;;
21567;SDS011;10944;42.590;12.630;2022-10-16T14:07:57;12.93;;;7.40;;
21567;SDS011;10944;42.590;12.630;2022-10-16T14:10:30;9.55;;;6.82;;
21567;SDS011;10944;42.590;12.630;2022-10-16T14:13:01;11.20;;;6.93;;
21567;SDS011;10944;42.590;12.630;2022-10-16T14:15:29;11.50;;;7.18;;
21567;SDS011;10944;42.590;12.630;2022-10-16T14:17:57;10.75;;;7.15;;
21567;SDS011;10944;42.590;12.630;2022-10-16T14:20:27;11.27;;;6.22;;
21567;SDS011;10944;42.590;12.630;2022-10-16T14:25:48;10.57;;;6.65;;
21567;SDS011;10944;42.590;12.630;2022-10-16T14:28:15;11.32;;;6.00;;
21567;SDS011;10944;42.590;12.630;2022-10-16T14:33:22;11.48;;;7.43;;
21567;SDS011;10944;42.590;12.630;2022-10-16T14:36:00;12.25;;;6.70;;
21567;SDS011;10944;42.590;12.630;2022-10-16T14:38:35;10.02;;;6.90;;
21567;SDS011;10944;42.590;12.630;2022-10-16T14:41:03;11.40;;;7.13;;
21567;SDS011;10944;42.590;12.630;2022-10-16T14:43:33;11.60;;;7.00;;
21567;SDS011;10944;42.590;12.630;2022-10-16T14:46:02;10.57;;;6.25;;
21567;SDS011;10944;42.590;12.630;2022-10-16T14:48:31;11.38;;;6.82;;
21567;SDS011;10944;42.590;12.630;2022-10-16T14:50:57;13.30;;;7.38;;
21567;SDS011;10944;42.590;12.630;2022-10-16T14:53:23;10.02;;;7.13;;
21567;SDS011;10944;42.590;12.630;2022-10-16T14:55:49;10.32;;;7.10;;
21567;SDS011;10944;42.590;12.630;2022-10-16T14:58:16;11.15;;;6.63;;
21567;SDS011;10944;42.590;12.630;2022-10-16T15:00:45;11.80;;;7.60;;
21567;SDS011;10944;42.590;12.630;2022-10-16T15:03:11;11.73;;;6.50;;
21567;SDS011;10944;42.590;12.630;2022-10-16T15:05:37;8.75;;;6.07;;
21567;SDS011;10944;42.590;12.630;2022-10-16T15:08:03;9.68;;;6.50;;
21567;SDS011;10944;42.590;12.630;2022-10-16T15:10:32;10.48;;;7.15;;
21567;SDS011;10944;42.590;12.630;2022-10-16T15:13:02;9.57;;;6.50;;
21567;SDS011;10944;42.590;12.630;2022-10-16T15:15:39;9.00;;;6.22;;
21567;SDS011;10944;42.590;12.630;2022-10-16T15:18:09;9.98;;;7.38;;
21567;SDS011;10944;42.590;12.630;2022-10-16T15:20:36;10.30;;;6.93;;
21567;SDS011;10944;42.590;12.630;2022-10-16T15:23:04;10.10;;;7.10;;
21567;SDS011;10944;42.590;12.630;2022-10-16T15:25:42;10.07;;;6.13;;
21567;SDS011;10944;42.590;12.630;2022-10-16T15:28:09;9.68;;;6.03;;
21567;SDS011;10944;42.590;12.630;2022-10-16T15:30:36;10.20;;;6.70;;
21567;SDS011;10944;42.590;12.630;2022-10-16T15:33:03;13.35;;;9.23;;
21567;SDS011;10944;42.590;12.630;2022-10-16T15:35:30;9.73;;;7.30;;
21567;SDS011;10944;42.590;12.630;2022-10-16T15:37:55;12.85;;;7.75;;
21567;SDS011;10944;42.590;12.630;2022-10-16T15:40:22;9.13;;;7.07;;
21567;SDS011;10944;42.590;12.630;2022-10-16T15:42:48;9.73;;;6.60;;
21567;SDS011;10944;42.590;12.630;2022-10-16T15:45:14;9.50;;;6.60;;
21567;SDS011;10944;42.590;12.630;2022-10-16T15:47:44;10.82;;;6.90;;
21567;SDS011;10944;42.590;12.630;2022-10-16T15:50:11;10.65;;;6.78;;
21567;SDS011;10944;42.590;12.630;2022-10-16T15:52:38;11.15;;;6.65;;
21567;SDS011;10944;42.590;12.630;2022-10-16T15:55:10;11.20;;;7.35;;
21567;SDS011;10944;42.590;12.630;2022-10-16T15:57:37;12.55;;;7.40;;
21567;SDS011;10944;42.590;12.630;2022-10-16T16:00:09;10.50;;;7.15;;
21567;SDS011;10944;42.590;12.630;2022-10-16T16:02:43;11.05;;;7.70;;
21567;SDS011;10944;42.590;12.630;2022-10-16T16:05:14;11.25;;;7.20;;
21567;SDS011;10944;42.590;12.630;2022-10-16T16:07:40;11.30;;;8.13;;
21567;SDS011;10944;42.590;12.630;2022-10-16T16:10:07;12.05;;;7.47;;
21567;SDS011;10944;42.590;12.630;2022-10-16T16:12:34;12.85;;;7.65;;
21567;SDS011;10944;42.590;12.630;2022-10-16T16:15:01;12.68;;;7.03;;
21567;SDS011;10944;42.590;12.630;2022-10-16T16:17:29;9.98;;;6.80;;
21567;SDS011;10944;42.590;12.630;2022-10-16T16:19:56;14.05;;;7.13;;
21567;SDS011;10944;42.590;12.630;2022-10-16T16:22:22;14.30;;;7.60;;
21567;SDS011;10944;42.590;12.630;2022-10-16T16:24:47;11.32;;;7.47;;
21567;SDS011;10944;42.590;12.630;2022-10-16T16:27:13;13.55;;;7.43;;
21567;SDS011;10944;42.590;12.630;2022-10-16T16:29:39;13.20;;;7.95;;
21567;SDS011;10944;42.590;12.630;2022-10-16T16:32:05;13.55;;;7.55;;
21567;SDS011;10944;42.590;12.630;2022-10-16T16:34:31;13.40;;;7.78;;
21567;SDS011;10944;42.590;12.630;2022-10-16T16:36:57;12.75;;;7.60;;
21567;SDS011;10944;42.590;12.630;2022-10-16T16:39:23;11.70;;;7.38;;
21567;SDS011;10944;42.590;12.630;2022-10-16T16:41:49;12.52;;;7.30;;
21567;SDS011;10944;42.590;12.630;2022-10-16T16:44:15;12.50;;;7.80;;
21567;SDS011;10944;42.590;12.630;2022-10-16T16:46:42;11.18;;;7.35;;
21567;SDS011;10944;42.590;12.630;2022-10-16T16:49:10;10.55;;;7.50;;